sensor_id;sensor_type;location;lat;lon;timestamp;P1;durP1;ratioP1;P2;durP2;ratioP2
3149;SDS011;32503;47.748;8.960;2023-05-16T00:00:03;3.57;;;3.37;;
3149;SDS011;32503;47.748;8.960;2023-05-16T00:02:33;4.00;;;3.80;;
3149;SDS011;32503;47.748;8.960;2023-05-16T00:05:02;3.90;;;3.63;;
3149;SDS011;32503;47.748;8.960;2023-05-16T00:07:31;4.17;;;3.87;;
3149;SDS011;32503;47.748;8.960;2023-05-16T00:09:59;5.10;;;3.70;;
3149;SDS011;32503;47.748;8.960;2023-05-16T00:12:27;3.80;;;3.50;;
3149;SDS011;32503;47.748;8.960;2023-05-16T00:14:54;3.90;;;3.60;;
3149;SDS011;32503;47.748;8.960;2023-05-16T00:17:21;4.40;;;4.20;;
3149;SDS011;32503;47.748;8.960;2023-05-16T00:19:48;2.77;;;2.67;;
3149;SDS011;32503;47.748;8.960;2023-05-16T00:22:23;3.50;;;3.30;;
3149;SDS011;32503;47.748;8.960;2023-05-16T00:24:51;3.40;;;3.20;;
3149;SDS011;32503;47.748;8.960;2023-05-16T00:27:18;3.53;;;3.33;;
3149;SDS011;32503;47.748;8.960;2023-05-16T00:29:45;3.80;;;3.60;;
3149;SDS011;32503;47.748;8.960;2023-05-16T00:32:12;3.50;;;3.37;;
3149;SDS011;32503;47.748;8.960;2023-05-16T00:34:39;3.30;;;3.10;;
3149;SDS011;32503;47.748;8.960;2023-05-16T00:37:06;4.07;;;3.80;;
3149;SDS011;32503;47.748;8.960;2023-05-16T00:39:34;4.17;;;3.87;;
3149;SDS011;32503;47.748;8.960;2023-05-16T00:42:02;4.50;;;4.10;;
3149;SDS011;32503;47.748;8.960;2023-05-16T00:44:29;3.37;;;3.17;;
3149;SDS011;32503;47.748;8.960;2023-05-16T00:46:56;3.33;;;3.13;;
3149;SDS011;32503;47.748;8.960;2023-05-16T00:49:25;4.10;;;3.70;;
3149;SDS011;32503;47.748;8.960;2023-05-16T00:51:52;3.33;;;3.20;;
3149;SDS011;32503;47.748;8.960;2023-05-16T00:54:19;3.70;;;3.50;;
3149;SDS011;32503;47.748;8.960;2023-05-16T00:56:51;3.60;;;3.30;;
3149;SDS011;32503;47.748;8.960;2023-05-16T00:59:18;3.90;;;3.70;;
3149;SDS011;32503;47.748;8.960;2023-05-16T01:01:46;4.00;;;3.70;;
3149;SDS011;32503;47.748;8.960;2023-05-16T01:04:14;4.13;;;3.93;;
3149;SDS011;32503;47.748;8.960;2023-05-16T01:06:42;5.20;;;4.80;;
3149;SDS011;32503;47.748;8.960;2023-05-16T01:09:09;3.50;;;3.30;;
3149;SDS011;32503;47.748;8.960;2023-05-16T01:11:39;3.77;;;3.57;;
3149;SDS011;32503;47.748;8.960;2023-05-16T01:14:18;3.80;;;3.60;;
3149;SDS011;32503;47.748;8.960;2023-05-16T01:16:53;3.30;;;3.10;;
3149;SDS011;32503;47.748;8.960;2023-05-16T01:19:39;3.90;;;3.60;;
3149;SDS011;32503;47.748;8.960;2023-05-16T01:22:27;3.73;;;3.53;;
3149;SDS011;32503;47.748;8.960;2023-05-16T01:25:04;4.13;;;3.67;;
3149;SDS011;32503;47.748;8.960;2023-05-16T01:27:46;3.73;;;3.53;;
3149;SDS011;32503;47.748;8.960;2023-05-16T01:30:16;3.70;;;3.50;;
3149;SDS011;32503;47.748;8.960;2023-05-16T01:32:44;3.63;;;3.43;;
3149;SDS011;32503;47.748;8.960;2023-05-16T01:35:12;4.17;;;3.97;;
3149;SDS011;32503;47.748;8.960;2023-05-16T01:37:44;4.27;;;3.97;;
3149;SDS011;32503;47.748;8.960;2023-05-16T01:40:19;4.40;;;4.10;;
3149;SDS011;32503;47.748;8.960;2023-05-16T01:43:04;4.23;;;3.93;;
3149;SDS011;32503;47.748;8.960;2023-05-16T01:45:39;4.00;;;3.80;;
3149;SDS011;32503;47.748;8.960;2023-05-16T01:48:12;4.27;;;3.93;;
3149;SDS011;32503;47.748;8.960;2023-05-16T01:50:45;4.33;;;4.13;;
3149;SDS011;32503;47.748;8.960;2023-05-16T01:53:21;3.83;;;3.53;;
3149;SDS011;32503;47.748;8.960;2023-05-16T01:55:55;3.70;;;3.50;;
3149;SDS011;32503;47.748;8.960;2023-05-16T01:58:27;3.77;;;3.57;;
3149;SDS011;32503;47.748;8.960;2023-05-16T02:00:59;3.80;;;3.60;;
3149;SDS011;32503;47.748;8.960;2023-05-16T02:03:27;4.40;;;3.73;;
3149;SDS011;32503;47.748;8.960;2023-05-16T02:05:54;4.67;;;4.40;;
3149;SDS011;32503;47.748;8.960;2023-05-16T02:08:22;3.30;;;3.20;;
3149;SDS011;32503;47.748;8.960;2023-05-16T02:10:50;3.37;;;3.17;;
3149;SDS011;32503;47.748;8.960;2023-05-16T02:13:17;3.20;;;3.10;;
3149;SDS011;32503;47.748;8.960;2023-05-16T02:15:46;3.57;;;3.37;;
3149;SDS011;32503;47.748;8.960;2023-05-16T02:18:13;3.97;;;3.77;;
3149;SDS011;32503;47.748;8.960;2023-05-16T02:20:40;10.20;;;3.97;;
3149;SDS011;32503;47.748;8.960;2023-05-16T02:23:07;3.47;;;3.27;;
3149;SDS011;32503;47.748;8.960;2023-05-16T02:25:34;3.23;;;3.13;;
3149;SDS011;32503;47.748;8.960;2023-05-16T02:28:01;4.33;;;3.93;;
3149;SDS011;32503;47.748;8.960;2023-05-16T02:30:28;3.47;;;3.27;;
3149;SDS011;32503;47.748;8.960;2023-05-16T02:32:56;3.30;;;3.10;;
3149;SDS011;32503;47.748;8.960;2023-05-16T02:35:23;3.57;;;3.37;;
3149;SDS011;32503;47.748;8.960;2023-05-16T02:37:50;3.70;;;3.40;;
3149;SDS011;32503;47.748;8.960;2023-05-16T02:40:17;3.27;;;3.07;;
3149;SDS011;32503;47.748;8.960;2023-05-16T02:42:44;3.33;;;3.20;;
3149;SDS011;32503;47.748;8.960;2023-05-16T02:45:11;4.63;;;3.27;;
3149;SDS011;32503;47.748;8.960;2023-05-16T02:47:38;4.10;;;3.80;;
3149;SDS011;32503;47.748;8.960;2023-05-16T02:50:07;3.90;;;3.70;;
3149;SDS011;32503;47.748;8.960;2023-05-16T02:52:35;3.20;;;3.00;;
3149;SDS011;32503;47.748;8.960;2023-05-16T02:55:02;3.63;;;3.43;;
3149;SDS011;32503;47.748;8.960;2023-05-16T02:57:30;4.20;;;4.00;;
3149;SDS011;32503;47.748;8.960;2023-05-16T02:59:57;3.70;;;3.50;;
3149;SDS011;32503;47.748;8.960;2023-05-16T03:02:24;4.63;;;4.40;;
3149;SDS011;32503;47.748;8.960;2023-05-16T03:04:51;3.40;;;3.20;;
3149;SDS011;32503;47.748;8.960;2023-05-16T03:07:19;3.27;;;3.17;;
3149;SDS011;32503;47.748;8.960;2023-05-16T03:09:46;3.30;;;3.10;;
3149;SDS011;32503;47.748;8.960;2023-05-16T03:12:13;3.60;;;3.40;;
3149;SDS011;32503;47.748;8.960;2023-05-16T03:14:40;3.07;;;2.87;;
3149;SDS011;32503;47.748;8.960;2023-05-16T03:17:07;3.70;;;3.50;;
3149;SDS011;32503;47.748;8.960;2023-05-16T03:19:34;4.40;;;4.10;;
3149;SDS011;32503;47.748;8.960;2023-05-16T03:22:01;4.17;;;3.97;;
3149;SDS011;32503;47.748;8.960;2023-05-16T03:24:30;4.77;;;4.37;;
3149;SDS011;32503;47.748;8.960;2023-05-16T03:26:57;3.50;;;3.30;;
3149;SDS011;32503;47.748;8.960;2023-05-16T03:29:24;4.80;;;3.90;;
3149;SDS011;32503;47.748;8.960;2023-05-16T03:31:52;4.07;;;3.67;;
3149;SDS011;32503;47.748;8.960;2023-05-16T03:34:19;3.70;;;3.50;;
3149;SDS011;32503;47.748;8.960;2023-05-16T03:36:46;4.63;;;4.30;;
3149;SDS011;32503;47.748;8.960;2023-05-16T03:39:14;4.93;;;4.63;;
3149;SDS011;32503;47.748;8.960;2023-05-16T03:41:43;4.57;;;4.17;;
3149;SDS011;32503;47.748;8.960;2023-05-16T03:44:10;4.60;;;4.20;;
3149;SDS011;32503;47.748;8.960;2023-05-16T03:46:37;4.10;;;3.90;;
3149;SDS011;32503;47.748;8.960;2023-05-16T03:49:04;4.20;;;4.00;;
3149;SDS011;32503;47.748;8.960;2023-05-16T03:51:31;4.63;;;4.33;;
3149;SDS011;32503;47.748;8.960;2023-05-16T03:53:58;5.07;;;4.57;;
3149;SDS011;32503;47.748;8.960;2023-05-16T03:56:25;4.80;;;4.47;;
3149;SDS011;32503;47.748;8.960;2023-05-16T03:58:53;5.00;;;4.50;;
3149;SDS011;32503;47.748;8.960;2023-05-16T04:01:20;4.90;;;4.60;;
3149;SDS011;32503;47.748;8.960;2023-05-16T04:03:47;4.73;;;4.47;;
3149;SDS011;32503;47.748;8.960;2023-05-16T04:06:15;5.40;;;4.90;;
3149;SDS011;32503;47.748;8.960;2023-05-16T04:08:42;4.10;;;3.90;;
3149;SDS011;32503;47.748;8.960;2023-05-16T04:11:10;5.07;;;4.40;;
3149;SDS011;32503;47.748;8.960;2023-05-16T04:13:37;5.33;;;4.93;;
3149;SDS011;32503;47.748;8.960;2023-05-16T04:16:06;5.80;;;5.40;;
3149;SDS011;32503;47.748;8.960;2023-05-16T04:18:33;5.40;;;4.93;;
3149;SDS011;32503;47.748;8.960;2023-05-16T04:21:00;5.10;;;3.97;;
3149;SDS011;32503;47.748;8.960;2023-05-16T04:23:27;4.30;;;4.00;;
3149;SDS011;32503;47.748;8.960;2023-05-16T04:25:54;5.37;;;4.97;;
3149;SDS011;32503;47.748;8.960;2023-05-16T04:28:21;5.93;;;5.40;;
3149;SDS011;32503;47.748;8.960;2023-05-16T04:30:48;5.20;;;4.80;;
3149;SDS011;32503;47.748;8.960;2023-05-16T04:33:17;4.80;;;4.40;;
3149;SDS011;32503;47.748;8.960;2023-05-16T04:35:44;5.27;;;4.90;;
3149;SDS011;32503;47.748;8.960;2023-05-16T04:38:12;4.47;;;4.27;;
3149;SDS011;32503;47.748;8.960;2023-05-16T04:40:39;5.10;;;4.70;;
3149;SDS011;32503;47.748;8.960;2023-05-16T04:43:07;5.23;;;4.97;;
3149;SDS011;32503;47.748;8.960;2023-05-16T04:45:34;5.27;;;4.80;;
3149;SDS011;32503;47.748;8.960;2023-05-16T04:48:01;4.73;;;4.43;;
3149;SDS011;32503;47.748;8.960;2023-05-16T04:50:30;4.70;;;4.40;;
3149;SDS011;32503;47.748;8.960;2023-05-16T04:52:57;4.87;;;4.53;;
3149;SDS011;32503;47.748;8.960;2023-05-16T04:55:24;4.80;;;4.50;;
3149;SDS011;32503;47.748;8.960;2023-05-16T04:57:51;5.07;;;4.70;;
3149;SDS011;32503;47.748;8.960;2023-05-16T05:00:18;4.77;;;4.47;;
3149;SDS011;32503;47.748;8.960;2023-05-16T05:02:45;7.70;;;5.37;;
3149;SDS011;32503;47.748;8.960;2023-05-16T05:05:12;4.60;;;4.30;;
3149;SDS011;32503;47.748;8.960;2023-05-16T05:07:41;4.50;;;4.30;;
3149;SDS011;32503;47.748;8.960;2023-05-16T05:10:08;5.23;;;4.83;;
3149;SDS011;32503;47.748;8.960;2023-05-16T05:12:36;4.20;;;4.00;;
3149;SDS011;32503;47.748;8.960;2023-05-16T05:15:03;4.97;;;4.57;;
3149;SDS011;32503;47.748;8.960;2023-05-16T05:17:32;4.70;;;4.40;;
3149;SDS011;32503;47.748;8.960;2023-05-16T05:19:59;5.27;;;4.97;;
3149;SDS011;32503;47.748;8.960;2023-05-16T05:22:30;4.53;;;4.23;;
3149;SDS011;32503;47.748;8.960;2023-05-16T05:24:59;4.53;;;4.23;;
3149;SDS011;32503;47.748;8.960;2023-05-16T05:27:26;4.50;;;4.20;;
3149;SDS011;32503;47.748;8.960;2023-05-16T05:29:53;4.73;;;4.43;;
3149;SDS011;32503;47.748;8.960;2023-05-16T05:32:20;3.77;;;3.57;;
3149;SDS011;32503;47.748;8.960;2023-05-16T05:34:47;4.37;;;4.17;;
3149;SDS011;32503;47.748;8.960;2023-05-16T05:37:14;4.77;;;4.37;;
3149;SDS011;32503;47.748;8.960;2023-05-16T05:39:41;5.00;;;4.60;;
3149;SDS011;32503;47.748;8.960;2023-05-16T05:42:10;4.57;;;4.27;;
3149;SDS011;32503;47.748;8.960;2023-05-16T05:44:37;4.60;;;4.30;;
3149;SDS011;32503;47.748;8.960;2023-05-16T05:47:04;4.70;;;4.27;;
3149;SDS011;32503;47.748;8.960;2023-05-16T05:49:33;4.60;;;4.30;;
3149;SDS011;32503;47.748;8.960;2023-05-16T05:52:00;5.93;;;5.40;;
3149;SDS011;32503;47.748;8.960;2023-05-16T05:54:27;6.20;;;5.80;;
3149;SDS011;32503;47.748;8.960;2023-05-16T05:56:55;8.40;;;6.67;;
3149;SDS011;32503;47.748;8.960;2023-05-16T05:59:24;13.30;;;9.80;;
3149;SDS011;32503;47.748;8.960;2023-05-16T06:01:51;9.90;;;8.77;;
3149;SDS011;32503;47.748;8.960;2023-05-16T06:04:18;8.87;;;7.90;;
3149;SDS011;32503;47.748;8.960;2023-05-16T06:06:46;10.50;;;9.00;;
3149;SDS011;32503;47.748;8.960;2023-05-16T06:09:13;9.10;;;8.10;;
3149;SDS011;32503;47.748;8.960;2023-05-16T06:11:40;8.87;;;7.97;;
3149;SDS011;32503;47.748;8.960;2023-05-16T06:14:09;10.40;;;8.17;;
3149;SDS011;32503;47.748;8.960;2023-05-16T06:16:38;11.30;;;9.60;;
3149;SDS011;32503;47.748;8.960;2023-05-16T06:19:05;12.97;;;9.70;;
3149;SDS011;32503;47.748;8.960;2023-05-16T06:21:32;17.93;;;12.87;;
3149;SDS011;32503;47.748;8.960;2023-05-16T06:23:59;11.37;;;9.77;;
3149;SDS011;32503;47.748;8.960;2023-05-16T06:26:26;10.53;;;8.83;;
3149;SDS011;32503;47.748;8.960;2023-05-16T06:28:53;10.20;;;9.00;;
3149;SDS011;32503;47.748;8.960;2023-05-16T06:31:20;10.70;;;8.97;;
3149;SDS011;32503;47.748;8.960;2023-05-16T06:33:48;8.70;;;7.83;;
3149;SDS011;32503;47.748;8.960;2023-05-16T06:36:15;8.83;;;7.60;;
3149;SDS011;32503;47.748;8.960;2023-05-16T06:38:42;8.87;;;7.20;;
3149;SDS011;32503;47.748;8.960;2023-05-16T06:41:09;11.47;;;7.93;;
3149;SDS011;32503;47.748;8.960;2023-05-16T06:43:36;10.57;;;8.33;;
3149;SDS011;32503;47.748;8.960;2023-05-16T06:46:03;11.47;;;9.17;;
3149;SDS011;32503;47.748;8.960;2023-05-16T06:48:31;9.37;;;8.40;;
3149;SDS011;32503;47.748;8.960;2023-05-16T06:50:59;13.73;;;9.93;;
3149;SDS011;32503;47.748;8.960;2023-05-16T06:53:26;14.10;;;11.47;;
3149;SDS011;32503;47.748;8.960;2023-05-16T06:55:53;13.63;;;9.77;;
3149;SDS011;32503;47.748;8.960;2023-05-16T06:58:21;13.07;;;9.80;;
3149;SDS011;32503;47.748;8.960;2023-05-16T07:00:48;13.37;;;10.90;;
3149;SDS011;32503;47.748;8.960;2023-05-16T07:03:15;17.20;;;10.93;;
3149;SDS011;32503;47.748;8.960;2023-05-16T07:05:42;15.17;;;11.17;;
3149;SDS011;32503;47.748;8.960;2023-05-16T07:08:11;13.23;;;9.80;;
3149;SDS011;32503;47.748;8.960;2023-05-16T07:10:38;14.17;;;11.60;;
3149;SDS011;32503;47.748;8.960;2023-05-16T07:13:05;15.37;;;10.47;;
3149;SDS011;32503;47.748;8.960;2023-05-16T07:15:32;16.87;;;11.77;;
3149;SDS011;32503;47.748;8.960;2023-05-16T07:17:59;17.07;;;12.67;;
3149;SDS011;32503;47.748;8.960;2023-05-16T07:20:26;15.67;;;11.77;;
3149;SDS011;32503;47.748;8.960;2023-05-16T07:22:53;17.90;;;13.23;;
3149;SDS011;32503;47.748;8.960;2023-05-16T07:25:22;18.07;;;11.80;;
3149;SDS011;32503;47.748;8.960;2023-05-16T07:27:50;17.67;;;11.67;;
3149;SDS011;32503;47.748;8.960;2023-05-16T07:30:17;17.70;;;12.10;;
3149;SDS011;32503;47.748;8.960;2023-05-16T07:32:45;24.03;;;14.53;;
3149;SDS011;32503;47.748;8.960;2023-05-16T07:35:12;18.37;;;12.57;;
3149;SDS011;32503;47.748;8.960;2023-05-16T07:37:39;15.33;;;11.90;;
3149;SDS011;32503;47.748;8.960;2023-05-16T07:40:08;17.83;;;12.60;;
3149;SDS011;32503;47.748;8.960;2023-05-16T07:42:37;15.90;;;12.40;;
3149;SDS011;32503;47.748;8.960;2023-05-16T07:45:04;14.10;;;10.80;;
3149;SDS011;32503;47.748;8.960;2023-05-16T07:47:32;21.03;;;13.47;;
3149;SDS011;32503;47.748;8.960;2023-05-16T07:50:00;14.13;;;10.50;;
3149;SDS011;32503;47.748;8.960;2023-05-16T07:52:27;17.23;;;11.77;;
3149;SDS011;32503;47.748;8.960;2023-05-16T07:54:54;18.13;;;13.47;;
3149;SDS011;32503;47.748;8.960;2023-05-16T07:57:22;17.10;;;12.30;;
3149;SDS011;32503;47.748;8.960;2023-05-16T07:59:50;17.50;;;12.40;;
3149;SDS011;32503;47.748;8.960;2023-05-16T08:02:18;20.33;;;12.50;;
3149;SDS011;32503;47.748;8.960;2023-05-16T08:04:45;17.67;;;12.50;;
3149;SDS011;32503;47.748;8.960;2023-05-16T08:07:12;16.83;;;12.23;;
3149;SDS011;32503;47.748;8.960;2023-05-16T08:09:40;13.23;;;11.03;;
3149;SDS011;32503;47.748;8.960;2023-05-16T08:12:07;11.73;;;10.20;;
3149;SDS011;32503;47.748;8.960;2023-05-16T08:14:34;13.97;;;11.77;;
3149;SDS011;32503;47.748;8.960;2023-05-16T08:17:03;15.50;;;13.20;;
3149;SDS011;32503;47.748;8.960;2023-05-16T08:19:30;13.13;;;10.73;;
3149;SDS011;32503;47.748;8.960;2023-05-16T08:21:57;12.23;;;10.20;;
3149;SDS011;32503;47.748;8.960;2023-05-16T08:24:24;16.30;;;10.67;;
3149;SDS011;32503;47.748;8.960;2023-05-16T08:26:52;14.90;;;10.17;;
3149;SDS011;32503;47.748;8.960;2023-05-16T08:29:19;14.10;;;10.40;;
3149;SDS011;32503;47.748;8.960;2023-05-16T08:31:47;10.20;;;9.10;;
3149;SDS011;32503;47.748;8.960;2023-05-16T08:34:15;12.17;;;10.50;;
3149;SDS011;32503;47.748;8.960;2023-05-16T08:36:42;13.63;;;10.40;;
3149;SDS011;32503;47.748;8.960;2023-05-16T08:39:09;13.90;;;10.77;;
3149;SDS011;32503;47.748;8.960;2023-05-16T08:41:37;14.50;;;11.43;;
3149;SDS011;32503;47.748;8.960;2023-05-16T08:44:04;14.73;;;10.63;;
3149;SDS011;32503;47.748;8.960;2023-05-16T08:46:32;12.93;;;10.93;;
3149;SDS011;32503;47.748;8.960;2023-05-16T08:48:59;14.87;;;12.67;;
3149;SDS011;32503;47.748;8.960;2023-05-16T08:51:31;16.97;;;12.53;;
3149;SDS011;32503;47.748;8.960;2023-05-16T08:54:02;17.03;;;11.80;;
3149;SDS011;32503;47.748;8.960;2023-05-16T08:56:33;18.20;;;12.40;;
3149;SDS011;32503;47.748;8.960;2023-05-16T08:59:03;14.33;;;11.40;;
3149;SDS011;32503;47.748;8.960;2023-05-16T09:01:30;17.67;;;13.03;;
3149;SDS011;32503;47.748;8.960;2023-05-16T09:03:58;17.80;;;12.70;;
3149;SDS011;32503;47.748;8.960;2023-05-16T09:06:26;20.07;;;13.53;;
3149;SDS011;32503;47.748;8.960;2023-05-16T09:08:54;16.63;;;12.60;;
3149;SDS011;32503;47.748;8.960;2023-05-16T09:11:22;15.93;;;11.87;;
3149;SDS011;32503;47.748;8.960;2023-05-16T09:13:49;16.53;;;11.50;;
3149;SDS011;32503;47.748;8.960;2023-05-16T09:16:16;21.53;;;12.33;;
3149;SDS011;32503;47.748;8.960;2023-05-16T09:18:46;15.50;;;11.40;;
3149;SDS011;32503;47.748;8.960;2023-05-16T09:21:20;17.73;;;12.37;;
3149;SDS011;32503;47.748;8.960;2023-05-16T09:23:48;15.90;;;11.77;;
3149;SDS011;32503;47.748;8.960;2023-05-16T09:26:17;17.47;;;11.63;;
3149;SDS011;32503;47.748;8.960;2023-05-16T09:28:46;14.70;;;11.10;;
3149;SDS011;32503;47.748;8.960;2023-05-16T09:31:19;16.83;;;12.27;;
3149;SDS011;32503;47.748;8.960;2023-05-16T09:33:50;14.77;;;11.97;;
3149;SDS011;32503;47.748;8.960;2023-05-16T09:36:17;19.53;;;12.10;;
3149;SDS011;32503;47.748;8.960;2023-05-16T09:38:44;16.57;;;11.30;;
3149;SDS011;32503;47.748;8.960;2023-05-16T09:41:11;15.57;;;11.27;;
3149;SDS011;32503;47.748;8.960;2023-05-16T09:43:41;15.50;;;11.43;;
3149;SDS011;32503;47.748;8.960;2023-05-16T09:46:11;13.77;;;10.17;;
3149;SDS011;32503;47.748;8.960;2023-05-16T09:48:39;12.47;;;10.20;;
3149;SDS011;32503;47.748;8.960;2023-05-16T09:51:07;15.00;;;11.40;;
3149;SDS011;32503;47.748;8.960;2023-05-16T09:53:34;14.80;;;10.17;;
3149;SDS011;32503;47.748;8.960;2023-05-16T09:56:05;14.53;;;11.37;;
3149;SDS011;32503;47.748;8.960;2023-05-16T09:58:35;19.00;;;11.23;;
3149;SDS011;32503;47.748;8.960;2023-05-16T10:01:06;14.87;;;11.37;;
3149;SDS011;32503;47.748;8.960;2023-05-16T10:03:34;18.00;;;11.53;;
3149;SDS011;32503;47.748;8.960;2023-05-16T10:06:03;17.17;;;12.10;;
3149;SDS011;32503;47.748;8.960;2023-05-16T10:08:32;14.93;;;11.80;;
3149;SDS011;32503;47.748;8.960;2023-05-16T10:11:01;15.00;;;10.70;;
3149;SDS011;32503;47.748;8.960;2023-05-16T10:13:30;13.50;;;10.60;;
3149;SDS011;32503;47.748;8.960;2023-05-16T10:16:00;14.40;;;10.40;;
3149;SDS011;32503;47.748;8.960;2023-05-16T10:18:35;14.87;;;12.53;;
3149;SDS011;32503;47.748;8.960;2023-05-16T10:21:06;12.43;;;11.13;;
3149;SDS011;32503;47.748;8.960;2023-05-16T10:23:35;16.83;;;12.63;;
3149;SDS011;32503;47.748;8.960;2023-05-16T10:26:06;11.87;;;10.53;;
3149;SDS011;32503;47.748;8.960;2023-05-16T10:28:35;13.67;;;10.60;;
3149;SDS011;32503;47.748;8.960;2023-05-16T10:31:02;16.73;;;11.97;;
3149;SDS011;32503;47.748;8.960;2023-05-16T10:33:32;13.93;;;10.83;;
3149;SDS011;32503;47.748;8.960;2023-05-16T10:36:01;17.27;;;10.77;;
3149;SDS011;32503;47.748;8.960;2023-05-16T10:38:29;19.37;;;11.90;;
3149;SDS011;32503;47.748;8.960;2023-05-16T10:40:57;18.77;;;11.60;;
3149;SDS011;32503;47.748;8.960;2023-05-16T10:43:25;16.57;;;11.73;;
3149;SDS011;32503;47.748;8.960;2023-05-16T10:45:55;15.70;;;10.97;;
3149;SDS011;32503;47.748;8.960;2023-05-16T10:48:31;17.07;;;11.70;;
3149;SDS011;32503;47.748;8.960;2023-05-16T10:50:59;16.57;;;10.83;;
3149;SDS011;32503;47.748;8.960;2023-05-16T10:53:28;19.10;;;12.73;;
3149;SDS011;32503;47.748;8.960;2023-05-16T10:56:07;16.47;;;11.60;;
3149;SDS011;32503;47.748;8.960;2023-05-16T10:58:43;15.57;;;11.20;;
3149;SDS011;32503;47.748;8.960;2023-05-16T11:01:22;15.33;;;10.77;;
3149;SDS011;32503;47.748;8.960;2023-05-16T11:04:06;12.57;;;10.07;;
3149;SDS011;32503;47.748;8.960;2023-05-16T11:06:42;11.13;;;9.63;;
3149;SDS011;32503;47.748;8.960;2023-05-16T11:09:18;16.03;;;10.50;;
3149;SDS011;32503;47.748;8.960;2023-05-16T11:11:55;15.47;;;12.20;;
3149;SDS011;32503;47.748;8.960;2023-05-16T11:14:28;15.00;;;10.60;;
3149;SDS011;32503;47.748;8.960;2023-05-16T11:17:05;13.57;;;10.43;;
3149;SDS011;32503;47.748;8.960;2023-05-16T11:19:39;14.90;;;12.30;;
3149;SDS011;32503;47.748;8.960;2023-05-16T11:22:12;12.00;;;9.60;;
3149;SDS011;32503;47.748;8.960;2023-05-16T11:24:50;10.93;;;8.77;;
3149;SDS011;32503;47.748;8.960;2023-05-16T11:27:23;12.37;;;9.50;;
3149;SDS011;32503;47.748;8.960;2023-05-16T11:29:54;9.53;;;8.63;;
3149;SDS011;32503;47.748;8.960;2023-05-16T11:32:24;10.50;;;9.43;;
3149;SDS011;32503;47.748;8.960;2023-05-16T11:34:53;9.33;;;8.43;;
3149;SDS011;32503;47.748;8.960;2023-05-16T11:37:20;8.53;;;7.67;;
3149;SDS011;32503;47.748;8.960;2023-05-16T11:39:47;9.80;;;8.90;;
3149;SDS011;32503;47.748;8.960;2023-05-16T11:42:15;9.57;;;8.47;;
3149;SDS011;32503;47.748;8.960;2023-05-16T11:44:43;9.83;;;8.07;;
3149;SDS011;32503;47.748;8.960;2023-05-16T11:47:10;7.90;;;7.17;;
3149;SDS011;32503;47.748;8.960;2023-05-16T11:49:37;7.63;;;6.93;;
3149;SDS011;32503;47.748;8.960;2023-05-16T11:52:07;6.80;;;6.20;;
3149;SDS011;32503;47.748;8.960;2023-05-16T11:54:35;7.53;;;6.80;;
3149;SDS011;32503;47.748;8.960;2023-05-16T11:57:03;6.60;;;6.10;;
3149;SDS011;32503;47.748;8.960;2023-05-16T11:59:31;6.53;;;5.73;;
3149;SDS011;32503;47.748;8.960;2023-05-16T12:01:58;7.13;;;6.43;;
3149;SDS011;32503;47.748;8.960;2023-05-16T12:04:29;8.77;;;6.97;;
3149;SDS011;32503;47.748;8.960;2023-05-16T12:06:57;7.57;;;6.90;;
3149;SDS011;32503;47.748;8.960;2023-05-16T12:09:27;6.10;;;5.60;;
3149;SDS011;32503;47.748;8.960;2023-05-16T12:11:54;7.07;;;6.37;;
3149;SDS011;32503;47.748;8.960;2023-05-16T12:14:22;6.10;;;5.70;;
3149;SDS011;32503;47.748;8.960;2023-05-16T12:16:51;11.13;;;6.60;;
3149;SDS011;32503;47.748;8.960;2023-05-16T12:19:18;5.83;;;5.33;;
3149;SDS011;32503;47.748;8.960;2023-05-16T12:21:46;6.07;;;5.47;;
3149;SDS011;32503;47.748;8.960;2023-05-16T12:24:17;5.23;;;4.83;;
3149;SDS011;32503;47.748;8.960;2023-05-16T12:26:46;6.17;;;5.77;;
3149;SDS011;32503;47.748;8.960;2023-05-16T12:29:13;6.20;;;5.80;;
3149;SDS011;32503;47.748;8.960;2023-05-16T12:31:40;5.90;;;5.40;;
3149;SDS011;32503;47.748;8.960;2023-05-16T12:34:14;5.90;;;5.50;;
3149;SDS011;32503;47.748;8.960;2023-05-16T12:36:43;6.63;;;5.70;;
3149;SDS011;32503;47.748;8.960;2023-05-16T12:39:11;5.37;;;4.97;;
3149;SDS011;32503;47.748;8.960;2023-05-16T12:41:39;6.70;;;6.20;;
3149;SDS011;32503;47.748;8.960;2023-05-16T12:44:13;6.73;;;5.77;;
3149;SDS011;32503;47.748;8.960;2023-05-16T12:46:43;6.80;;;6.23;;
3149;SDS011;32503;47.748;8.960;2023-05-16T12:49:12;7.20;;;5.60;;
3149;SDS011;32503;47.748;8.960;2023-05-16T12:51:39;6.07;;;5.53;;
3149;SDS011;32503;47.748;8.960;2023-05-16T12:54:14;7.67;;;6.97;;
3149;SDS011;32503;47.748;8.960;2023-05-16T12:56:41;7.87;;;6.90;;
3149;SDS011;32503;47.748;8.960;2023-05-16T12:59:09;5.90;;;5.50;;
3149;SDS011;32503;47.748;8.960;2023-05-16T13:01:38;7.30;;;6.70;;
3149;SDS011;32503;47.748;8.960;2023-05-16T13:04:06;7.60;;;6.80;;
3149;SDS011;32503;47.748;8.960;2023-05-16T13:06:38;7.20;;;6.50;;
3149;SDS011;32503;47.748;8.960;2023-05-16T13:09:05;8.33;;;6.40;;
3149;SDS011;32503;47.748;8.960;2023-05-16T13:11:32;7.03;;;6.27;;
3149;SDS011;32503;47.748;8.960;2023-05-16T13:13:59;9.60;;;7.60;;
3149;SDS011;32503;47.748;8.960;2023-05-16T13:16:26;9.93;;;7.40;;
3149;SDS011;32503;47.748;8.960;2023-05-16T13:18:55;9.73;;;8.10;;
3149;SDS011;32503;47.748;8.960;2023-05-16T13:21:23;10.80;;;8.20;;
3149;SDS011;32503;47.748;8.960;2023-05-16T13:23:52;10.67;;;8.60;;
3149;SDS011;32503;47.748;8.960;2023-05-16T13:26:19;9.90;;;8.53;;
3149;SDS011;32503;47.748;8.960;2023-05-16T13:28:46;9.43;;;8.50;;
3149;SDS011;32503;47.748;8.960;2023-05-16T13:31:17;9.13;;;7.93;;
3149;SDS011;32503;47.748;8.960;2023-05-16T13:33:44;9.40;;;7.23;;
3149;SDS011;32503;47.748;8.960;2023-05-16T13:36:12;10.33;;;8.60;;
3149;SDS011;32503;47.748;8.960;2023-05-16T13:38:39;10.03;;;7.80;;
3149;SDS011;32503;47.748;8.960;2023-05-16T13:41:06;13.60;;;7.73;;
3149;SDS011;32503;47.748;8.960;2023-05-16T13:43:33;10.97;;;8.70;;
3149;SDS011;32503;47.748;8.960;2023-05-16T13:46:00;9.23;;;7.47;;
3149;SDS011;32503;47.748;8.960;2023-05-16T13:48:27;8.77;;;7.47;;
3149;SDS011;32503;47.748;8.960;2023-05-16T13:50:54;8.20;;;7.40;;
3149;SDS011;32503;47.748;8.960;2023-05-16T13:53:23;9.60;;;7.03;;
3149;SDS011;32503;47.748;8.960;2023-05-16T13:55:50;7.40;;;6.80;;
3149;SDS011;32503;47.748;8.960;2023-05-16T13:58:17;9.10;;;7.33;;
3149;SDS011;32503;47.748;8.960;2023-05-16T14:00:44;7.67;;;6.90;;
3149;SDS011;32503;47.748;8.960;2023-05-16T14:03:11;7.57;;;6.20;;
3149;SDS011;32503;47.748;8.960;2023-05-16T14:05:38;6.80;;;6.23;;
3149;SDS011;32503;47.748;8.960;2023-05-16T14:08:05;7.17;;;6.50;;
3149;SDS011;32503;47.748;8.960;2023-05-16T14:10:33;7.80;;;7.00;;
3149;SDS011;32503;47.748;8.960;2023-05-16T14:13:00;7.37;;;6.20;;
3149;SDS011;32503;47.748;8.960;2023-05-16T14:15:27;5.33;;;4.90;;
3149;SDS011;32503;47.748;8.960;2023-05-16T14:17:54;4.23;;;3.93;;
3149;SDS011;32503;47.748;8.960;2023-05-16T14:20:23;5.13;;;4.83;;
3149;SDS011;32503;47.748;8.960;2023-05-16T14:22:50;4.20;;;3.80;;
3149;SDS011;32503;47.748;8.960;2023-05-16T14:25:17;3.63;;;3.43;;
3149;SDS011;32503;47.748;8.960;2023-05-16T14:27:46;3.63;;;3.40;;
3149;SDS011;32503;47.748;8.960;2023-05-16T14:30:14;5.00;;;3.30;;
3149;SDS011;32503;47.748;8.960;2023-05-16T14:32:42;3.67;;;3.47;;
3149;SDS011;32503;47.748;8.960;2023-05-16T14:35:09;3.20;;;3.00;;
3149;SDS011;32503;47.748;8.960;2023-05-16T14:37:36;3.00;;;2.80;;
3149;SDS011;32503;47.748;8.960;2023-05-16T14:40:03;2.67;;;2.57;;
3149;SDS011;32503;47.748;8.960;2023-05-16T14:42:34;3.60;;;3.40;;
3149;SDS011;32503;47.748;8.960;2023-05-16T14:45:03;3.03;;;2.83;;
3149;SDS011;32503;47.748;8.960;2023-05-16T14:47:31;3.10;;;2.90;;
3149;SDS011;32503;47.748;8.960;2023-05-16T14:49:58;3.17;;;2.87;;
3149;SDS011;32503;47.748;8.960;2023-05-16T14:52:25;3.10;;;2.90;;
3149;SDS011;32503;47.748;8.960;2023-05-16T14:54:53;3.00;;;2.80;;
3149;SDS011;32503;47.748;8.960;2023-05-16T14:57:20;3.23;;;2.93;;
3149;SDS011;32503;47.748;8.960;2023-05-16T14:59:47;2.47;;;2.30;;